Pagina principale
METAR-TAF:

METAR-TAF

Aeroporti :

Aeroporto di Majuro

Majuro, Isole Marshall

latitudine: 07-04N, longitudine: 171-17E, altezza: 2 m

Osservazione

Il bollettino è stato emesso 3 ore e 29 minuti fa, alle 08:59 UTC
Vento 17 kt da nord-est
Temperature 29°C
Umidità 79%
Pressione 1009 hPa
Visibilità: 24.1 km
Poco nuvoloso ad un'altezza di 1500 ft
Nubi sparse ad un'altezza di 5000 ft
Nuvoloso ad un'altezza di 30000 ft

METAR: PKMJ 170859Z 05017KT 15SM FEW015 SCT050 BKN300 29/25 A2981 RMK LAST

Ora: 00:28 (12:28 UTC)

Previsione

Il bollettino è stato emesso 1 ora e 8 minuti fa, alle 11:20 UTC
Previsione valida dal 17 alle 12 UTC al 18 alle 12 UTC
Vento 17 kt da nord-est
Visibilità: 10 km
Nubi sparse ad un'altezza di 1500 ft
Nubi sparse ad un'altezza di 5000 ft
Nuvoloso ad un'altezza di 30000 ft
rovesci nelle vicinanze

TAF: PKMJ 171120Z 1712/1812 05017KT P6SM VCSH SCT015 SCT050 BKN300

Osservazioni e previsioni meteorologiche di più di 4000 aeroporti (messaggi METAR e TAF).

Le stazioni disponibili sono rappresentate dai dischi gialli e rossi sulla carta.

Puntare il mouse per vedere il nome della stazione.

Clicca sopra per visualizzare le osservazioni e previsioni meteorologiche.

Per cambiare la mappa : fare clic sui pulsanti verdi con una croce nera per ingrandire, il pulsante verde con un trattino per diminuire, o sulla freccia verde per le mappe adiacenti.


METAR-TAF: